sensor_id;sensor_type;location;lat;lon;timestamp;pressure;altitude;pressure_sealevel;temperature;humidity
19553;BME280;9420;50.876;7.012;2022-07-09T00:00:39;102296.28;;;34.76;40.44
19553;BME280;9420;50.876;7.012;2022-07-09T00:03:06;102297.34;;;35.33;39.96
19553;BME280;9420;50.876;7.012;2022-07-09T00:05:33;102289.44;;;35.22;39.92
19553;BME280;9420;50.876;7.012;2022-07-09T00:08:00;102290.84;;;34.51;41.24
19553;BME280;9420;50.876;7.012;2022-07-09T00:10:29;102289.25;;;34.74;40.78
19553;BME280;9420;50.876;7.012;2022-07-09T00:12:56;102287.19;;;34.42;41.16
19553;BME280;9420;50.876;7.012;2022-07-09T00:15:23;102283.34;;;34.01;41.98
19553;BME280;9420;50.876;7.012;2022-07-09T00:17:51;102282.56;;;33.91;42.41
19553;BME280;9420;50.876;7.012;2022-07-09T00:20:18;102276.81;;;34.20;41.82
19553;BME280;9420;50.876;7.012;2022-07-09T00:22:45;102278.19;;;34.24;42.06
19553;BME280;9420;50.876;7.012;2022-07-09T00:25:12;102285.53;;;34.83;40.98
19553;BME280;9420;50.876;7.012;2022-07-09T00:27:40;102282.66;;;34.51;41.57
19553;BME280;9420;50.876;7.012;2022-07-09T00:30:09;102286.66;;;34.38;41.27
19553;BME280;9420;50.876;7.012;2022-07-09T00:32:36;102275.53;;;34.58;41.45
19553;BME280;9420;50.876;7.012;2022-07-09T00:35:04;102272.38;;;34.86;40.79
19553;BME280;9420;50.876;7.012;2022-07-09T00:37:31;102274.69;;;34.39;42.03
19553;BME280;9420;50.876;7.012;2022-07-09T00:39:58;102269.22;;;34.39;42.10
19553;BME280;9420;50.876;7.012;2022-07-09T00:42:25;102271.13;;;34.13;42.03
19553;BME280;9420;50.876;7.012;2022-07-09T00:44:53;102268.78;;;34.18;42.62
19553;BME280;9420;50.876;7.012;2022-07-09T00:47:21;102274.69;;;34.06;42.66
19553;BME280;9420;50.876;7.012;2022-07-09T00:49:48;102267.47;;;33.61;43.50
19553;BME280;9420;50.876;7.012;2022-07-09T00:52:16;102271.47;;;33.40;44.32
19553;BME280;9420;50.876;7.012;2022-07-09T00:54:44;102259.03;;;33.55;43.62
19553;BME280;9420;50.876;7.012;2022-07-09T00:57:12;102263.50;;;34.51;42.64
19553;BME280;9420;50.876;7.012;2022-07-09T00:59:40;102260.19;;;33.70;43.90
19553;BME280;9420;50.876;7.012;2022-07-09T01:02:09;102261.31;;;34.28;42.89
19553;BME280;9420;50.876;7.012;2022-07-09T01:04:36;102248.09;;;33.55;43.92
19553;BME280;9420;50.876;7.012;2022-07-09T01:07:05;102254.34;;;33.65;43.81
19553;BME280;9420;50.876;7.012;2022-07-09T01:09:33;102253.88;;;33.52;43.88
19553;BME280;9420;50.876;7.012;2022-07-09T01:12:01;102248.41;;;33.52;44.07
19553;BME280;9420;50.876;7.012;2022-07-09T01:14:28;102251.03;;;33.79;43.42
19553;BME280;9420;50.876;7.012;2022-07-09T01:17:00;102249.97;;;33.37;44.06
19553;BME280;9420;50.876;7.012;2022-07-09T01:19:33;102250.38;;;33.59;43.74
19553;BME280;9420;50.876;7.012;2022-07-09T01:22:03;102246.19;;;33.73;43.63
19553;BME280;9420;50.876;7.012;2022-07-09T01:24:30;102243.09;;;33.68;44.08
19553;BME280;9420;50.876;7.012;2022-07-09T01:26:57;102245.69;;;33.95;43.12
19553;BME280;9420;50.876;7.012;2022-07-09T01:29:24;102244.97;;;33.50;43.65
19553;BME280;9420;50.876;7.012;2022-07-09T01:31:51;102245.94;;;33.84;43.50
19553;BME280;9420;50.876;7.012;2022-07-09T01:34:18;102237.47;;;36.03;39.60
19553;BME280;9420;50.876;7.012;2022-07-09T01:36:45;102248.03;;;33.90;42.34
19553;BME280;9420;50.876;7.012;2022-07-09T01:39:14;102235.44;;;33.72;43.77
19553;BME280;9420;50.876;7.012;2022-07-09T01:41:41;102238.06;;;33.81;43.48
19553;BME280;9420;50.876;7.012;2022-07-09T01:44:08;102236.47;;;33.96;43.06
19553;BME280;9420;50.876;7.012;2022-07-09T01:46:35;102239.44;;;33.85;43.39
19553;BME280;9420;50.876;7.012;2022-07-09T01:49:03;102229.97;;;33.54;44.09
19553;BME280;9420;50.876;7.012;2022-07-09T01:51:33;102235.03;;;33.49;43.72
19553;BME280;9420;50.876;7.012;2022-07-09T01:54:01;102231.75;;;33.45;43.59
19553;BME280;9420;50.876;7.012;2022-07-09T01:56:29;102235.84;;;33.24;43.74
19553;BME280;9420;50.876;7.012;2022-07-09T01:58:57;102234.72;;;33.17;44.41
19553;BME280;9420;50.876;7.012;2022-07-09T02:01:24;102230.44;;;33.14;44.68
19553;BME280;9420;50.876;7.012;2022-07-09T02:03:51;102224.72;;;33.08;44.82
19553;BME280;9420;50.876;7.012;2022-07-09T02:06:18;102225.59;;;33.08;44.91
19553;BME280;9420;50.876;7.012;2022-07-09T02:08:45;102219.06;;;33.36;44.31
19553;BME280;9420;50.876;7.012;2022-07-09T02:11:12;102229.97;;;33.19;44.80
19553;BME280;9420;50.876;7.012;2022-07-09T02:13:40;102219.69;;;33.13;45.01
19553;BME280;9420;50.876;7.012;2022-07-09T02:16:07;102215.47;;;32.91;45.41
19553;BME280;9420;50.876;7.012;2022-07-09T02:18:34;102211.78;;;33.10;44.87
19553;BME280;9420;50.876;7.012;2022-07-09T02:21:02;102215.72;;;33.07;45.02
19553;BME280;9420;50.876;7.012;2022-07-09T02:23:30;102210.88;;;33.01;45.52
19553;BME280;9420;50.876;7.012;2022-07-09T02:25:57;102207.44;;;32.99;45.54
19553;BME280;9420;50.876;7.012;2022-07-09T02:28:24;102206.97;;;33.21;45.93
19553;BME280;9420;50.876;7.012;2022-07-09T02:30:53;102208.28;;;33.00;45.74
19553;BME280;9420;50.876;7.012;2022-07-09T02:33:20;102201.66;;;33.20;45.96
19553;BME280;9420;50.876;7.012;2022-07-09T02:35:47;102206.88;;;33.31;45.28
19553;BME280;9420;50.876;7.012;2022-07-09T02:38:15;102209.78;;;32.84;46.58
19553;BME280;9420;50.876;7.012;2022-07-09T02:40:43;102204.66;;;32.81;46.78
19553;BME280;9420;50.876;7.012;2022-07-09T02:43:10;102197.94;;;32.94;46.48
19553;BME280;9420;50.876;7.012;2022-07-09T02:45:36;102198.81;;;34.42;44.25
19553;BME280;9420;50.876;7.012;2022-07-09T02:48:05;102203.03;;;32.88;46.09
19553;BME280;9420;50.876;7.012;2022-07-09T02:50:32;102201.50;;;33.04;46.31
19553;BME280;9420;50.876;7.012;2022-07-09T02:52:59;102202.88;;;32.36;47.42
19553;BME280;9420;50.876;7.012;2022-07-09T02:55:27;102199.69;;;32.95;46.91
19553;BME280;9420;50.876;7.012;2022-07-09T02:57:53;102202.00;;;32.89;46.51
19553;BME280;9420;50.876;7.012;2022-07-09T03:00:20;102198.88;;;33.12;46.11
19553;BME280;9420;50.876;7.012;2022-07-09T03:02:47;102197.66;;;32.97;47.02
19553;BME280;9420;50.876;7.012;2022-07-09T03:05:16;102198.13;;;33.10;47.04
19553;BME280;9420;50.876;7.012;2022-07-09T03:07:43;102196.38;;;33.01;46.97
19553;BME280;9420;50.876;7.012;2022-07-09T03:10:10;102196.25;;;32.93;47.61
19553;BME280;9420;50.876;7.012;2022-07-09T03:12:38;102199.19;;;33.26;47.32
19553;BME280;9420;50.876;7.012;2022-07-09T03:15:07;102195.19;;;33.21;47.47
19553;BME280;9420;50.876;7.012;2022-07-09T03:17:34;102187.31;;;33.00;48.04
19553;BME280;9420;50.876;7.012;2022-07-09T03:20:01;102195.75;;;33.07;49.00
19553;BME280;9420;50.876;7.012;2022-07-09T03:22:30;102198.09;;;33.37;48.66
19553;BME280;9420;50.876;7.012;2022-07-09T03:24:57;102194.34;;;33.81;46.96
19553;BME280;9420;50.876;7.012;2022-07-09T03:27:24;102187.91;;;33.64;47.84
19553;BME280;9420;50.876;7.012;2022-07-09T03:29:51;102192.94;;;33.77;47.33
19553;BME280;9420;50.876;7.012;2022-07-09T03:32:18;102194.41;;;33.89;47.29
19553;BME280;9420;50.876;7.012;2022-07-09T03:34:45;102191.28;;;33.84;47.26
19553;BME280;9420;50.876;7.012;2022-07-09T03:37:12;102193.59;;;33.71;48.13
19553;BME280;9420;50.876;7.012;2022-07-09T03:39:40;102195.63;;;33.69;48.78
19553;BME280;9420;50.876;7.012;2022-07-09T03:42:07;102194.00;;;34.02;47.81
19553;BME280;9420;50.876;7.012;2022-07-09T03:44:34;102196.91;;;34.08;47.73
19553;BME280;9420;50.876;7.012;2022-07-09T03:47:01;102194.19;;;34.84;44.51
19553;BME280;9420;50.876;7.012;2022-07-09T03:49:29;102185.53;;;34.21;46.62
19553;BME280;9420;50.876;7.012;2022-07-09T03:51:57;102193.69;;;34.47;48.07
19553;BME280;9420;50.876;7.012;2022-07-09T03:54:24;102193.28;;;34.00;47.98
19553;BME280;9420;50.876;7.012;2022-07-09T03:56:52;102189.78;;;34.15;47.99
19553;BME280;9420;50.876;7.012;2022-07-09T03:59:19;102194.25;;;34.16;49.02
19553;BME280;9420;50.876;7.012;2022-07-09T04:01:48;102188.59;;;33.92;49.08
19553;BME280;9420;50.876;7.012;2022-07-09T04:04:15;102183.59;;;34.05;49.02
19553;BME280;9420;50.876;7.012;2022-07-09T04:06:42;102193.63;;;33.53;50.15
19553;BME280;9420;50.876;7.012;2022-07-09T04:09:10;102178.69;;;35.97;44.72
19553;BME280;9420;50.876;7.012;2022-07-09T04:11:37;102184.38;;;33.72;49.09
19553;BME280;9420;50.876;7.012;2022-07-09T04:14:05;102188.72;;;34.08;47.75
19553;BME280;9420;50.876;7.012;2022-07-09T04:16:32;102191.56;;;34.24;46.65
19553;BME280;9420;50.876;7.012;2022-07-09T04:18:59;102192.94;;;34.28;45.78
19553;BME280;9420;50.876;7.012;2022-07-09T04:21:26;102187.09;;;35.79;43.91
19553;BME280;9420;50.876;7.012;2022-07-09T04:23:53;102194.72;;;34.04;45.29
19553;BME280;9420;50.876;7.012;2022-07-09T04:26:20;102193.28;;;34.33;44.37
19553;BME280;9420;50.876;7.012;2022-07-09T04:28:47;102199.63;;;34.68;43.52
19553;BME280;9420;50.876;7.012;2022-07-09T04:31:16;102198.25;;;34.64;43.52
19553;BME280;9420;50.876;7.012;2022-07-09T04:33:45;102195.88;;;33.84;45.47
19553;BME280;9420;50.876;7.012;2022-07-09T04:36:12;102192.19;;;33.93;44.67
19553;BME280;9420;50.876;7.012;2022-07-09T04:38:39;102200.00;;;33.62;45.48
19553;BME280;9420;50.876;7.012;2022-07-09T04:41:06;102206.66;;;33.85;44.93
19553;BME280;9420;50.876;7.012;2022-07-09T04:43:33;102203.88;;;33.77;44.81
19553;BME280;9420;50.876;7.012;2022-07-09T04:46:00;102208.81;;;34.59;43.04
19553;BME280;9420;50.876;7.012;2022-07-09T04:48:29;102206.88;;;33.66;44.51
19553;BME280;9420;50.876;7.012;2022-07-09T04:50:56;102208.00;;;32.48;46.51
19553;BME280;9420;50.876;7.012;2022-07-09T04:53:24;102205.16;;;33.65;44.38
19553;BME280;9420;50.876;7.012;2022-07-09T04:55:51;102212.22;;;32.87;46.85
19553;BME280;9420;50.876;7.012;2022-07-09T04:58:18;102214.94;;;32.87;46.25
19553;BME280;9420;50.876;7.012;2022-07-09T05:00:45;102206.31;;;33.62;44.84
19553;BME280;9420;50.876;7.012;2022-07-09T05:03:12;102202.63;;;33.89;44.69
19553;BME280;9420;50.876;7.012;2022-07-09T05:05:40;102209.28;;;33.95;44.41
19553;BME280;9420;50.876;7.012;2022-07-09T05:08:07;102209.63;;;33.66;45.33
19553;BME280;9420;50.876;7.012;2022-07-09T05:10:34;102212.13;;;33.59;45.02
19553;BME280;9420;50.876;7.012;2022-07-09T05:13:02;102210.22;;;33.60;45.48
19553;BME280;9420;50.876;7.012;2022-07-09T05:15:29;102209.13;;;33.96;44.60
19553;BME280;9420;50.876;7.012;2022-07-09T05:17:58;102209.69;;;34.00;44.79
19553;BME280;9420;50.876;7.012;2022-07-09T05:20:26;102202.94;;;34.12;44.84
19553;BME280;9420;50.876;7.012;2022-07-09T05:22:54;102204.69;;;33.95;45.08
19553;BME280;9420;50.876;7.012;2022-07-09T05:25:21;102197.56;;;33.77;45.61
19553;BME280;9420;50.876;7.012;2022-07-09T05:27:48;102195.72;;;33.59;46.39
19553;BME280;9420;50.876;7.012;2022-07-09T05:30:16;102197.97;;;33.29;45.85
19553;BME280;9420;50.876;7.012;2022-07-09T05:32:43;102192.94;;;34.28;44.21
19553;BME280;9420;50.876;7.012;2022-07-09T05:35:10;102201.28;;;33.15;45.76
19553;BME280;9420;50.876;7.012;2022-07-09T05:37:42;102205.63;;;33.08;46.62
19553;BME280;9420;50.876;7.012;2022-07-09T05:40:12;102202.16;;;33.76;44.57
19553;BME280;9420;50.876;7.012;2022-07-09T05:42:39;102206.56;;;32.99;46.84
19553;BME280;9420;50.876;7.012;2022-07-09T05:45:08;102204.31;;;33.29;46.75
19553;BME280;9420;50.876;7.012;2022-07-09T05:47:35;102209.00;;;34.31;45.16
19553;BME280;9420;50.876;7.012;2022-07-09T05:50:03;102212.63;;;34.40;45.18
19553;BME280;9420;50.876;7.012;2022-07-09T05:52:30;102216.69;;;32.88;47.68
19553;BME280;9420;50.876;7.012;2022-07-09T05:54:57;102211.00;;;34.21;45.43
19553;BME280;9420;50.876;7.012;2022-07-09T05:57:25;102214.72;;;33.87;46.25
19553;BME280;9420;50.876;7.012;2022-07-09T05:59:52;102212.19;;;33.93;46.63
19553;BME280;9420;50.876;7.012;2022-07-09T06:02:19;102208.91;;;34.83;44.54
19553;BME280;9420;50.876;7.012;2022-07-09T06:04:46;102202.06;;;34.11;46.46
19553;BME280;9420;50.876;7.012;2022-07-09T06:07:13;102196.78;;;34.85;44.94
19553;BME280;9420;50.876;7.012;2022-07-09T06:09:40;102199.22;;;34.55;45.50
19553;BME280;9420;50.876;7.012;2022-07-09T06:12:08;102199.44;;;34.35;45.98
19553;BME280;9420;50.876;7.012;2022-07-09T06:14:37;102191.59;;;34.66;45.04
19553;BME280;9420;50.876;7.012;2022-07-09T06:17:05;102191.81;;;36.18;42.26
19553;BME280;9420;50.876;7.012;2022-07-09T06:19:33;102199.63;;;34.76;44.51
19553;BME280;9420;50.876;7.012;2022-07-09T06:22:01;102201.50;;;35.17;44.03
19553;BME280;9420;50.876;7.012;2022-07-09T06:24:29;102201.31;;;35.43;43.68
19553;BME280;9420;50.876;7.012;2022-07-09T06:26:56;102206.81;;;34.69;44.30
19553;BME280;9420;50.876;7.012;2022-07-09T06:29:23;102201.84;;;33.79;46.64
19553;BME280;9420;50.876;7.012;2022-07-09T06:31:52;102217.63;;;34.45;45.73
19553;BME280;9420;50.876;7.012;2022-07-09T06:34:18;102213.50;;;34.40;46.68
19553;BME280;9420;50.876;7.012;2022-07-09T06:36:45;102208.63;;;34.18;46.38
19553;BME280;9420;50.876;7.012;2022-07-09T06:39:12;102209.34;;;33.77;47.16
19553;BME280;9420;50.876;7.012;2022-07-09T06:42:04;102206.06;;;34.59;46.44
19553;BME280;9420;50.876;7.012;2022-07-09T06:44:32;102212.44;;;34.33;46.87
19553;BME280;9420;50.876;7.012;2022-07-09T06:47:01;102195.31;;;35.87;44.53
19553;BME280;9420;50.876;7.012;2022-07-09T06:49:28;102210.41;;;34.77;45.87
19553;BME280;9420;50.876;7.012;2022-07-09T06:51:55;102194.81;;;36.39;43.20
19553;BME280;9420;50.876;7.012;2022-07-09T06:54:23;102206.19;;;34.91;45.54
19553;BME280;9420;50.876;7.012;2022-07-09T06:56:50;102190.00;;;35.70;44.42
19553;BME280;9420;50.876;7.012;2022-07-09T06:59:18;102196.78;;;34.85;45.34
19553;BME280;9420;50.876;7.012;2022-07-09T07:01:48;102197.53;;;35.11;45.89
19553;BME280;9420;50.876;7.012;2022-07-09T07:04:16;102193.63;;;35.46;44.80
19553;BME280;9420;50.876;7.012;2022-07-09T07:06:46;102192.94;;;35.60;44.45
19553;BME280;9420;50.876;7.012;2022-07-09T07:09:14;102197.22;;;35.55;44.61
19553;BME280;9420;50.876;7.012;2022-07-09T07:11:41;102197.03;;;36.51;42.65
19553;BME280;9420;50.876;7.012;2022-07-09T07:14:09;102197.00;;;35.40;42.88
19553;BME280;9420;50.876;7.012;2022-07-09T07:16:36;102192.22;;;35.82;42.00
19553;BME280;9420;50.876;7.012;2022-07-09T07:19:03;102200.13;;;35.77;43.28
19553;BME280;9420;50.876;7.012;2022-07-09T07:21:31;102192.88;;;36.09;41.85
19553;BME280;9420;50.876;7.012;2022-07-09T07:23:58;102201.88;;;38.37;37.69
19553;BME280;9420;50.876;7.012;2022-07-09T07:26:25;102200.81;;;35.31;41.70
19553;BME280;9420;50.876;7.012;2022-07-09T07:28:52;102201.81;;;35.30;42.16
19553;BME280;9420;50.876;7.012;2022-07-09T07:31:20;102194.09;;;37.60;38.05
19553;BME280;9420;50.876;7.012;2022-07-09T07:33:48;102189.09;;;37.78;36.31
19553;BME280;9420;50.876;7.012;2022-07-09T07:36:16;102196.09;;;37.66;36.77
19553;BME280;9420;50.876;7.012;2022-07-09T07:38:44;102190.38;;;38.19;35.66
19553;BME280;9420;50.876;7.012;2022-07-09T07:41:12;102189.34;;;37.91;36.06
19553;BME280;9420;50.876;7.012;2022-07-09T07:43:39;102188.44;;;37.38;36.46
19553;BME280;9420;50.876;7.012;2022-07-09T07:46:06;102192.88;;;38.93;35.86
19553;BME280;9420;50.876;7.012;2022-07-09T07:48:33;102187.44;;;35.76;38.25
19553;BME280;9420;50.876;7.012;2022-07-09T07:51:02;102197.84;;;37.44;36.70
19553;BME280;9420;50.876;7.012;2022-07-09T07:53:30;102193.78;;;38.06;35.62
19553;BME280;9420;50.876;7.012;2022-07-09T07:56:00;102189.06;;;38.30;35.87
19553;BME280;9420;50.876;7.012;2022-07-09T07:58:27;102176.16;;;39.93;33.95
19553;BME280;9420;50.876;7.012;2022-07-09T08:00:55;102175.81;;;39.26;33.90
19553;BME280;9420;50.876;7.012;2022-07-09T08:03:22;102188.88;;;38.46;34.93
19553;BME280;9420;50.876;7.012;2022-07-09T08:05:49;102188.78;;;38.10;35.67
19553;BME280;9420;50.876;7.012;2022-07-09T08:08:16;102179.34;;;39.41;34.00
19553;BME280;9420;50.876;7.012;2022-07-09T08:10:45;102179.78;;;39.17;33.44
19553;BME280;9420;50.876;7.012;2022-07-09T08:13:16;102188.47;;;37.90;35.24
19553;BME280;9420;50.876;7.012;2022-07-09T08:15:43;102181.00;;;39.35;33.46
19553;BME280;9420;50.876;7.012;2022-07-09T08:18:11;102181.09;;;37.91;35.49
19553;BME280;9420;50.876;7.012;2022-07-09T08:20:40;102191.03;;;38.21;34.59
19553;BME280;9420;50.876;7.012;2022-07-09T08:23:08;102175.81;;;39.26;34.02
19553;BME280;9420;50.876;7.012;2022-07-09T08:25:35;102181.84;;;40.12;33.61
19553;BME280;9420;50.876;7.012;2022-07-09T08:28:03;102186.09;;;38.60;34.33
19553;BME280;9420;50.876;7.012;2022-07-09T08:30:32;102181.94;;;37.31;35.05
19553;BME280;9420;50.876;7.012;2022-07-09T08:32:59;102172.25;;;37.81;34.25
19553;BME280;9420;50.876;7.012;2022-07-09T08:35:26;102178.97;;;39.02;33.56
19553;BME280;9420;50.876;7.012;2022-07-09T08:37:53;102177.16;;;36.80;36.11
19553;BME280;9420;50.876;7.012;2022-07-09T08:40:21;102165.75;;;37.74;35.14
19553;BME280;9420;50.876;7.012;2022-07-09T08:42:49;102171.69;;;38.44;34.83
19553;BME280;9420;50.876;7.012;2022-07-09T08:45:17;102161.84;;;42.10;30.26
19553;BME280;9420;50.876;7.012;2022-07-09T08:47:46;102159.94;;;40.04;32.80
19553;BME280;9420;50.876;7.012;2022-07-09T08:50:13;102172.78;;;37.62;35.21
19553;BME280;9420;50.876;7.012;2022-07-09T08:52:41;102170.53;;;38.67;33.84
19553;BME280;9420;50.876;7.012;2022-07-09T08:55:09;102159.41;;;39.39;32.95
19553;BME280;9420;50.876;7.012;2022-07-09T08:57:37;102160.53;;;38.66;33.25
19553;BME280;9420;50.876;7.012;2022-07-09T09:00:06;102163.63;;;38.28;34.10
19553;BME280;9420;50.876;7.012;2022-07-09T09:02:35;102165.41;;;39.21;33.37
19553;BME280;9420;50.876;7.012;2022-07-09T09:05:09;102150.03;;;39.82;32.24
19553;BME280;9420;50.876;7.012;2022-07-09T09:07:37;102152.53;;;40.05;32.38
19553;BME280;9420;50.876;7.012;2022-07-09T09:10:06;102155.22;;;38.79;33.37
19553;BME280;9420;50.876;7.012;2022-07-09T09:12:34;102153.44;;;37.32;35.08
19553;BME280;9420;50.876;7.012;2022-07-09T09:15:05;102154.13;;;38.15;34.30
19553;BME280;9420;50.876;7.012;2022-07-09T09:17:32;102143.13;;;39.65;31.70
19553;BME280;9420;50.876;7.012;2022-07-09T09:20:12;102145.53;;;38.04;34.53
19553;BME280;9420;50.876;7.012;2022-07-09T09:22:46;102133.81;;;39.03;32.86
19553;BME280;9420;50.876;7.012;2022-07-09T09:25:17;102124.84;;;39.64;32.09
19553;BME280;9420;50.876;7.012;2022-07-09T09:27:51;102143.13;;;38.45;33.23
19553;BME280;9420;50.876;7.012;2022-07-09T09:30:19;102133.00;;;39.51;32.27
19553;BME280;9420;50.876;7.012;2022-07-09T09:32:55;102132.75;;;40.01;32.49
19553;BME280;9420;50.876;7.012;2022-07-09T09:35:26;102124.78;;;39.09;32.66
19553;BME280;9420;50.876;7.012;2022-07-09T09:37:54;102124.97;;;39.07;33.33
19553;BME280;9420;50.876;7.012;2022-07-09T09:40:22;102122.03;;;38.52;33.02
19553;BME280;9420;50.876;7.012;2022-07-09T09:42:49;102113.16;;;39.62;32.45
19553;BME280;9420;50.876;7.012;2022-07-09T09:45:17;102113.34;;;38.69;33.19
19553;BME280;9420;50.876;7.012;2022-07-09T09:47:48;102105.28;;;42.37;29.20
19553;BME280;9420;50.876;7.012;2022-07-09T09:50:19;102117.94;;;37.97;32.86
19553;BME280;9420;50.876;7.012;2022-07-09T09:52:49;102106.03;;;39.74;31.79
19553;BME280;9420;50.876;7.012;2022-07-09T09:55:19;102111.44;;;40.29;31.32
19553;BME280;9420;50.876;7.012;2022-07-09T09:57:48;102103.78;;;39.29;31.28
19553;BME280;9420;50.876;7.012;2022-07-09T10:00:16;102097.94;;;40.00;30.88
19553;BME280;9420;50.876;7.012;2022-07-09T10:02:45;102088.63;;;40.08;30.88
19553;BME280;9420;50.876;7.012;2022-07-09T10:05:13;102085.59;;;39.96;31.01
19553;BME280;9420;50.876;7.012;2022-07-09T10:07:41;102091.03;;;40.84;30.21
19553;BME280;9420;50.876;7.012;2022-07-09T10:10:19;102086.97;;;40.80;29.55
19553;BME280;9420;50.876;7.012;2022-07-09T10:12:47;102089.34;;;39.06;30.71
19553;BME280;9420;50.876;7.012;2022-07-09T10:15:22;102081.38;;;40.00;31.13
19553;BME280;9420;50.876;7.012;2022-07-09T10:17:52;102081.03;;;40.16;30.67
19553;BME280;9420;50.876;7.012;2022-07-09T10:20:30;102076.56;;;41.67;28.83
19553;BME280;9420;50.876;7.012;2022-07-09T10:23:00;102070.63;;;41.31;28.68
19553;BME280;9420;50.876;7.012;2022-07-09T10:25:31;102081.19;;;40.49;29.90
19553;BME280;9420;50.876;7.012;2022-07-09T10:28:14;102070.41;;;43.66;27.38
19553;BME280;9420;50.876;7.012;2022-07-09T10:30:42;102057.72;;;43.33;27.73
19553;BME280;9420;50.876;7.012;2022-07-09T10:33:12;102063.78;;;44.80;26.56
19553;BME280;9420;50.876;7.012;2022-07-09T10:35:41;102064.69;;;41.41;28.81
19553;BME280;9420;50.876;7.012;2022-07-09T10:38:09;102061.63;;;41.81;29.17
19553;BME280;9420;50.876;7.012;2022-07-09T10:40:43;102068.28;;;41.02;29.70
19553;BME280;9420;50.876;7.012;2022-07-09T10:43:12;102059.31;;;40.61;29.84
19553;BME280;9420;50.876;7.012;2022-07-09T10:45:41;102053.94;;;41.83;27.69
19553;BME280;9420;50.876;7.012;2022-07-09T10:48:11;102041.31;;;43.50;26.01
19553;BME280;9420;50.876;7.012;2022-07-09T10:50:40;102040.03;;;43.53;26.42
19553;BME280;9420;50.876;7.012;2022-07-09T10:53:09;102039.28;;;42.96;27.32
19553;BME280;9420;50.876;7.012;2022-07-09T10:55:37;102049.66;;;42.38;27.11
19553;BME280;9420;50.876;7.012;2022-07-09T10:58:16;102044.84;;;42.96;25.97
19553;BME280;9420;50.876;7.012;2022-07-09T11:00:43;102040.88;;;44.37;25.69
19553;BME280;9420;50.876;7.012;2022-07-09T11:03:10;102028.72;;;45.60;24.29
19553;BME280;9420;50.876;7.012;2022-07-09T11:05:45;102030.63;;;46.23;24.19
19553;BME280;9420;50.876;7.012;2022-07-09T11:08:12;102028.00;;;43.95;24.99
19553;BME280;9420;50.876;7.012;2022-07-09T11:10:39;102035.81;;;42.38;26.35
19553;BME280;9420;50.876;7.012;2022-07-09T11:13:08;102025.97;;;44.50;25.10
19553;BME280;9420;50.876;7.012;2022-07-09T11:15:37;102013.50;;;45.40;24.38
19553;BME280;9420;50.876;7.012;2022-07-09T11:18:06;102022.22;;;42.30;26.74
19553;BME280;9420;50.876;7.012;2022-07-09T11:20:38;102019.81;;;42.03;27.29
19553;BME280;9420;50.876;7.012;2022-07-09T11:23:08;102016.16;;;42.53;27.00
19553;BME280;9420;50.876;7.012;2022-07-09T11:25:36;102016.81;;;43.29;26.21
19553;BME280;9420;50.876;7.012;2022-07-09T11:28:03;102004.38;;;44.63;24.97
19553;BME280;9420;50.876;7.012;2022-07-09T11:30:32;102010.47;;;44.83;25.39
19553;BME280;9420;50.876;7.012;2022-07-09T11:33:00;102008.38;;;45.83;24.80
19553;BME280;9420;50.876;7.012;2022-07-09T11:35:29;101998.75;;;44.40;24.65
19553;BME280;9420;50.876;7.012;2022-07-09T11:37:58;102001.56;;;43.13;26.35
19553;BME280;9420;50.876;7.012;2022-07-09T11:40:25;102010.19;;;40.36;28.45
19553;BME280;9420;50.876;7.012;2022-07-09T11:42:53;102013.19;;;38.70;30.36
19553;BME280;9420;50.876;7.012;2022-07-09T11:45:21;102011.22;;;39.75;29.47
19553;BME280;9420;50.876;7.012;2022-07-09T11:48:02;101999.25;;;40.89;28.63
19553;BME280;9420;50.876;7.012;2022-07-09T11:50:31;102001.63;;;41.75;27.99
19553;BME280;9420;50.876;7.012;2022-07-09T11:52:59;101997.50;;;41.14;28.52
19553;BME280;9420;50.876;7.012;2022-07-09T11:55:32;101982.28;;;44.27;25.54
19553;BME280;9420;50.876;7.012;2022-07-09T11:58:06;101989.88;;;41.03;27.70
19553;BME280;9420;50.876;7.012;2022-07-09T12:00:36;101989.78;;;40.31;29.34
19553;BME280;9420;50.876;7.012;2022-07-09T12:03:07;101992.59;;;39.49;29.64
19553;BME280;9420;50.876;7.012;2022-07-09T12:05:36;101991.53;;;38.88;30.58
19553;BME280;9420;50.876;7.012;2022-07-09T12:08:06;101987.31;;;40.49;28.33
19553;BME280;9420;50.876;7.012;2022-07-09T12:10:36;101979.56;;;43.18;26.20
19553;BME280;9420;50.876;7.012;2022-07-09T12:13:05;101962.81;;;45.38;24.99
19553;BME280;9420;50.876;7.012;2022-07-09T12:15:35;101961.88;;;43.19;26.25
19553;BME280;9420;50.876;7.012;2022-07-09T12:18:02;101958.84;;;41.01;28.39
19553;BME280;9420;50.876;7.012;2022-07-09T12:20:33;101956.13;;;41.58;27.28
19553;BME280;9420;50.876;7.012;2022-07-09T12:23:00;101949.28;;;41.74;27.56
19553;BME280;9420;50.876;7.012;2022-07-09T12:25:27;101954.81;;;40.84;28.55
19553;BME280;9420;50.876;7.012;2022-07-09T12:27:54;101941.69;;;39.86;29.33
19553;BME280;9420;50.876;7.012;2022-07-09T12:30:20;101945.88;;;39.69;29.70
19553;BME280;9420;50.876;7.012;2022-07-09T12:32:48;101940.09;;;40.37;28.99
19553;BME280;9420;50.876;7.012;2022-07-09T12:35:16;101937.53;;;41.08;29.20
19553;BME280;9420;50.876;7.012;2022-07-09T12:37:44;101930.44;;;39.94;29.66
19553;BME280;9420;50.876;7.012;2022-07-09T12:40:12;101941.47;;;39.88;29.44
19553;BME280;9420;50.876;7.012;2022-07-09T12:42:39;101934.19;;;40.93;29.14
19553;BME280;9420;50.876;7.012;2022-07-09T12:45:08;101932.06;;;41.01;28.79
19553;BME280;9420;50.876;7.012;2022-07-09T12:47:35;101916.38;;;41.97;27.75
19553;BME280;9420;50.876;7.012;2022-07-09T12:50:02;101911.13;;;39.94;28.78
19553;BME280;9420;50.876;7.012;2022-07-09T12:52:30;101907.34;;;40.02;29.37
19553;BME280;9420;50.876;7.012;2022-07-09T12:55:00;101916.75;;;40.73;29.77
19553;BME280;9420;50.876;7.012;2022-07-09T12:57:27;101904.88;;;40.66;28.93
19553;BME280;9420;50.876;7.012;2022-07-09T12:59:54;101915.06;;;40.46;30.12
19553;BME280;9420;50.876;7.012;2022-07-09T13:02:22;101898.50;;;40.72;29.47
19553;BME280;9420;50.876;7.012;2022-07-09T13:04:49;101895.19;;;38.67;31.14